»·PEaware :: SWA956 KBUR-KLAS

SWA956 :: KBUR-KLAS

FLIGHT INFORMATION

Flight Status: Arrived
Operator:
Southwest Airlines
More flights by this operator :: More flights under this callsign
Pilot: Patricio R. (14780)
Aircraft: BOEING 737-300
(B733)
More flights by this aircraft type
Origin: KBUR Bob Hope-Burbank
United States
Destination: KLAS McCarran Intl
United States
More flights between these airports :: More routes between these airports
Route: +SLAPP1 MISEN KEPEC6
File this flight plan on PilotEdge
Remarks:
Altitude:
(Current/Filed)
27,000ft
Speed:
(Current/Filed)
452kts
Departed: 08-Jan-18 12:38 PM
Arrived: 08-Jan-18 01:23 PM
Distance/Time
Traveled:
194nm/0:44
Distance/Time
To Go:
Arrived

Flight Plot

Page will automatically refresh every two minutes.

Flight plan parsing failed; only flown route is shown


Map Options




Map Legend


Flown Route
Filed Route
Departure Airport
Arrival Airport
Navaid (VOR, NDB)
Fix

Horizontal Profiles

Position Reports

Time Latitude Longitude Heading Altitude Ground
Speed
08-Jan-18 12:07 34.196773 -118.351977 179 783ft 0kts
08-Jan-18 12:08 34.196773 -118.351977 179 783ft 0kts
08-Jan-18 12:09 34.196773 -118.351977 179 783ft 0kts
08-Jan-18 12:10 34.196773 -118.351977 179 783ft 0kts
08-Jan-18 12:11 34.196773 -118.351977 179 783ft 0kts
08-Jan-18 12:12 34.196773 -118.351977 179 783ft 0kts
08-Jan-18 12:13 34.196773 -118.351977 179 783ft 0kts
08-Jan-18 12:14 34.196773 -118.351977 179 783ft 0kts
08-Jan-18 12:15 34.196773 -118.351977 179 783ft 0kts
08-Jan-18 12:16 34.196773 -118.351977 179 783ft 0kts
08-Jan-18 12:17 34.196773 -118.351977 179 783ft 0kts
08-Jan-18 12:18 34.196773 -118.351977 179 783ft 0kts
08-Jan-18 12:19 34.196773 -118.351977 179 783ft 0kts
08-Jan-18 12:20 34.196773 -118.351977 179 783ft 0kts
08-Jan-18 12:21 34.196773 -118.351977 179 783ft 0kts
08-Jan-18 12:22 34.196773 -118.351977 179 783ft 0kts
08-Jan-18 12:23 34.196773 -118.351977 179 783ft 0kts
08-Jan-18 12:24 34.196773 -118.351977 179 783ft 0kts
08-Jan-18 12:25 34.196773 -118.351977 179 783ft 0kts
08-Jan-18 12:26 34.196844 -118.351976 179 783ft 2kts
08-Jan-18 12:27 34.197183 -118.351734 272 783ft 1kts
08-Jan-18 12:28 34.197183 -118.351714 270 783ft 0kts
08-Jan-18 12:29 34.197183 -118.351714 270 783ft 0kts
08-Jan-18 12:30 34.197183 -118.351718 270 783ft 0kts
08-Jan-18 12:31 34.197183 -118.351718 270 783ft 0kts
08-Jan-18 12:32 34.197183 -118.351718 270 783ft 0kts
08-Jan-18 12:33 34.197183 -118.351718 270 783ft 0kts
08-Jan-18 12:34 34.197183 -118.351718 270 783ft 0kts
08-Jan-18 12:35 34.197183 -118.351718 270 783ft 0kts
08-Jan-18 12:36 34.197183 -118.351718 270 783ft 0kts
08-Jan-18 12:37 34.197183 -118.351718 270 783ft 0kts
08-Jan-18 12:38 34.197183 -118.351721 270 783ft 0kts
08-Jan-18 12:39 34.197258 -118.353913 288 783ft 0kts
08-Jan-18 12:40 34.197284 -118.354007 288 783ft 5kts
08-Jan-18 12:41 34.201672 -118.356189 346 783ft 21kts
08-Jan-18 12:42 34.207798 -118.357867 346 783ft 24kts
08-Jan-18 12:43 34.211513 -118.359012 322 783ft 4kts
08-Jan-18 12:44 34.204055 -118.358179 168 783ft 117kts
08-Jan-18 12:45 34.164024 -118.353633 220 2211ft 164kts
08-Jan-18 12:46 34.139044 -118.401931 291 3916ft 209kts
08-Jan-18 12:47 34.195224 -118.425095 352 6235ft 238kts
08-Jan-18 12:48 34.264422 -118.432132 352 8385ft 273kts
08-Jan-18 12:49 34.346160 -118.434189 16 10382ft 316kts
08-Jan-18 12:50 34.418905 -118.372134 38 12855ft 332kts
08-Jan-18 12:51 34.493000 -118.302788 42 15137ft 350kts
08-Jan-18 12:52 34.569773 -118.225800 42 17297ft 368kts
08-Jan-18 12:53 34.649925 -118.144998 48 19246ft 384kts
08-Jan-18 12:54 34.682496 -118.028146 87 21039ft 374kts
08-Jan-18 12:55 34.696041 -117.903837 96 22731ft 379kts
08-Jan-18 12:56 34.703614 -117.774070 96 24328ft 392kts
08-Jan-18 12:57 34.709127 -117.640846 98 25798ft 401kts
08-Jan-18 12:58 34.715523 -117.503645 88 27125ft 424kts
08-Jan-18 12:59 34.754363 -117.357278 79 27096ft 476kts
08-Jan-18 13:00 34.794347 -117.207058 80 27134ft 477kts
08-Jan-18 13:01 34.834942 -117.053291 79 27134ft 475kts
08-Jan-18 13:02 34.874826 -116.901349 78 27130ft 469kts
08-Jan-18 13:03 34.914252 -116.750227 77 27128ft 471kts
08-Jan-18 13:04 34.984630 -116.612742 57 26581ft 486kts
08-Jan-18 13:05 35.060484 -116.478599 57 24873ft 475kts
08-Jan-18 13:06 35.137586 -116.359018 45 24109ft 460kts
08-Jan-18 13:07 35.218096 -116.259135 46 23234ft 446kts
08-Jan-18 13:08 35.300252 -116.155981 46 21424ft 425kts
08-Jan-18 13:09 35.380796 -116.054546 46 19605ft 406kts
08-Jan-18 13:10 35.457280 -115.957935 46 17815ft 387kts
08-Jan-18 13:11 35.530053 -115.865757 46 16012ft 366kts
08-Jan-18 13:12 35.598797 -115.778442 46 14218ft 347kts
08-Jan-18 13:13 35.663398 -115.696190 46 13018ft 325kts
08-Jan-18 13:14 35.726663 -115.614811 46 13031ft 330kts
08-Jan-18 13:15 35.805031 -115.572581 358 13025ft 325kts
08-Jan-18 13:16 35.895447 -115.567922 359 13017ft 325kts
08-Jan-18 13:17 35.978506 -115.538736 59 12937ft 329kts
08-Jan-18 13:18 36.011376 -115.437864 71 11881ft 300kts
08-Jan-18 13:19 36.028919 -115.344006 99 10959ft 282kts
08-Jan-18 13:20 36.022451 -115.256485 97 9732ft 282kts
08-Jan-18 13:21 36.015779 -115.162494 95 8446ft 267kts
08-Jan-18 13:22 36.009923 -115.075941 94 7988ft 249kts
08-Jan-18 13:23 36.005218 -114.997059 93 7314ft 252kts
08-Jan-18 13:24 36.022738 -114.925606 4 5727ft 224kts
08-Jan-18 13:25 36.071768 -114.959033 290 4436ft 200kts
08-Jan-18 13:26 36.073952 -115.023844 270 3800ft 184kts
08-Jan-18 13:27 36.073681 -115.078655 270 2906ft 153kts
08-Jan-18 13:28 36.073648 -115.128402 270 2134ft 141kts
08-Jan-18 13:29 36.074517 -115.150111 301 2118ft 9kts
08-Jan-18 13:30 36.077862 -115.152547 25 2118ft 13kts
08-Jan-18 13:31 36.078626 -115.148784 94 2118ft 14kts
08-Jan-18 13:32 36.079630 -115.146654 30 2118ft 0kts

Navigation Log

Ident Type
Flight plan parsing failed, navigation log unavailable